sensor_id;sensor_type;location;lat;lon;timestamp;pressure;altitude;pressure_sealevel;temperature;humidity
71195;BME280;58908;51.426;7.714;2022-12-18T00:00:55;101057.25;;;-8.84;100.00
71195;BME280;58908;51.426;7.714;2022-12-18T00:03:22;101069.84;;;-8.68;100.00
71195;BME280;58908;51.426;7.714;2022-12-18T00:05:48;101075.53;;;-8.54;100.00
71195;BME280;58908;51.426;7.714;2022-12-18T00:08:16;101069.69;;;-8.72;100.00
71195;BME280;58908;51.426;7.714;2022-12-18T00:10:43;101066.16;;;-8.96;100.00
71195;BME280;58908;51.426;7.714;2022-12-18T00:13:10;101070.75;;;-9.08;100.00
71195;BME280;58908;51.426;7.714;2022-12-18T00:15:36;101064.81;;;-9.27;100.00
71195;BME280;58908;51.426;7.714;2022-12-18T00:18:03;101061.81;;;-9.18;100.00
71195;BME280;58908;51.426;7.714;2022-12-18T00:20:29;101064.09;;;-9.05;100.00
71195;BME280;58908;51.426;7.714;2022-12-18T00:22:55;101054.88;;;-8.79;100.00
71195;BME280;58908;51.426;7.714;2022-12-18T00:25:23;101057.22;;;-8.85;100.00
71195;BME280;58908;51.426;7.714;2022-12-18T00:27:49;101057.41;;;-9.01;100.00
71195;BME280;58908;51.426;7.714;2022-12-18T00:30:15;101056.25;;;-9.09;100.00
71195;BME280;58908;51.426;7.714;2022-12-18T00:32:42;101048.69;;;-9.06;100.00
71195;BME280;58908;51.426;7.714;2022-12-18T00:35:08;101061.66;;;-9.02;100.00
71195;BME280;58908;51.426;7.714;2022-12-18T00:37:34;101066.44;;;-8.89;100.00
71195;BME280;58908;51.426;7.714;2022-12-18T00:40:01;101073.56;;;-8.82;100.00
71195;BME280;58908;51.426;7.714;2022-12-18T00:42:28;101080.63;;;-8.75;100.00
71195;BME280;58908;51.426;7.714;2022-12-18T00:45:12;101085.72;;;-8.76;100.00
71195;BME280;58908;51.426;7.714;2022-12-18T00:47:39;101079.97;;;-8.91;100.00
71195;BME280;58908;51.426;7.714;2022-12-18T00:50:05;101065.69;;;-9.07;100.00
71195;BME280;58908;51.426;7.714;2022-12-18T00:52:32;101064.38;;;-8.77;100.00
71195;BME280;58908;51.426;7.714;2022-12-18T00:54:58;101072.28;;;-8.91;100.00
71195;BME280;58908;51.426;7.714;2022-12-18T00:57:24;101084.81;;;-8.77;100.00
71195;BME280;58908;51.426;7.714;2022-12-18T00:59:52;101085.09;;;-8.71;100.00
71195;BME280;58908;51.426;7.714;2022-12-18T01:02:18;101080.41;;;-8.81;100.00
71195;BME280;58908;51.426;7.714;2022-12-18T01:04:44;101092.13;;;-8.86;100.00
71195;BME280;58908;51.426;7.714;2022-12-18T01:07:10;101082.19;;;-8.78;100.00
71195;BME280;58908;51.426;7.714;2022-12-18T01:09:37;101078.38;;;-8.67;100.00
71195;BME280;58908;51.426;7.714;2022-12-18T01:12:03;101071.56;;;-8.89;100.00
71195;BME280;58908;51.426;7.714;2022-12-18T01:14:29;101069.22;;;-9.05;100.00
71195;BME280;58908;51.426;7.714;2022-12-18T01:16:57;101066.13;;;-9.17;100.00
71195;BME280;58908;51.426;7.714;2022-12-18T01:19:23;101064.81;;;-9.27;100.00
71195;BME280;58908;51.426;7.714;2022-12-18T01:21:49;101063.81;;;-9.11;100.00
71195;BME280;58908;51.426;7.714;2022-12-18T01:24:16;101063.56;;;-9.17;100.00
71195;BME280;58908;51.426;7.714;2022-12-18T01:26:42;101068.81;;;-9.13;100.00
71195;BME280;58908;51.426;7.714;2022-12-18T01:29:08;101079.16;;;-9.11;100.00
71195;BME280;58908;51.426;7.714;2022-12-18T01:31:34;101077.78;;;-9.03;100.00
71195;BME280;58908;51.426;7.714;2022-12-18T01:34:02;101085.44;;;-9.23;100.00
71195;BME280;58908;51.426;7.714;2022-12-18T01:36:30;101087.78;;;-9.27;100.00
71195;BME280;58908;51.426;7.714;2022-12-18T01:38:58;101089.16;;;-9.35;100.00
71195;BME280;58908;51.426;7.714;2022-12-18T01:41:26;101093.16;;;-9.21;100.00
71195;BME280;58908;51.426;7.714;2022-12-18T01:46:54;101089.44;;;-9.09;100.00
71195;BME280;58908;51.426;7.714;2022-12-18T01:49:22;101092.31;;;-8.61;100.00
71195;BME280;58908;51.426;7.714;2022-12-18T01:51:48;101086.19;;;-8.85;100.00
71195;BME280;58908;51.426;7.714;2022-12-18T01:54:15;101077.56;;;-8.46;100.00
71195;BME280;58908;51.426;7.714;2022-12-18T01:56:41;101075.66;;;-8.50;100.00
71195;BME280;58908;51.426;7.714;2022-12-18T01:59:07;101076.50;;;-8.29;100.00
71195;BME280;58908;51.426;7.714;2022-12-18T02:01:35;101059.63;;;-8.68;100.00
71195;BME280;58908;51.426;7.714;2022-12-18T02:04:16;101051.75;;;-8.94;100.00
71195;BME280;58908;51.426;7.714;2022-12-18T02:06:46;101065.16;;;-9.20;100.00
71195;BME280;58908;51.426;7.714;2022-12-18T02:09:17;101069.06;;;-9.28;100.00
71195;BME280;58908;51.426;7.714;2022-12-18T02:11:47;101071.91;;;-9.41;100.00
71195;BME280;58908;51.426;7.714;2022-12-18T02:14:17;101065.06;;;-9.01;100.00
71195;BME280;58908;51.426;7.714;2022-12-18T02:16:44;101063.75;;;-9.12;100.00
71195;BME280;58908;51.426;7.714;2022-12-18T02:19:15;101054.47;;;-9.30;100.00
71195;BME280;58908;51.426;7.714;2022-12-18T02:21:49;101053.72;;;-9.28;100.00
71195;BME280;58908;51.426;7.714;2022-12-18T02:24:23;101062.31;;;-9.46;100.00
71195;BME280;58908;51.426;7.714;2022-12-18T02:26:56;101056.38;;;-9.45;100.00
71195;BME280;58908;51.426;7.714;2022-12-18T02:29:24;101050.09;;;-8.92;100.00
71195;BME280;58908;51.426;7.714;2022-12-18T02:31:54;101051.69;;;-9.16;100.00
71195;BME280;58908;51.426;7.714;2022-12-18T02:34:23;101053.25;;;-8.99;100.00
71195;BME280;58908;51.426;7.714;2022-12-18T02:36:51;101054.31;;;-9.14;100.00
71195;BME280;58908;51.426;7.714;2022-12-18T02:39:19;101058.41;;;-9.38;100.00
71195;BME280;58908;51.426;7.714;2022-12-18T02:41:47;101056.00;;;-9.34;100.00
71195;BME280;58908;51.426;7.714;2022-12-18T02:44:15;101057.44;;;-9.40;100.00
71195;BME280;58908;51.426;7.714;2022-12-18T02:46:42;101056.47;;;-9.44;100.00
71195;BME280;58908;51.426;7.714;2022-12-18T02:49:17;101055.50;;;-9.46;100.00
71195;BME280;58908;51.426;7.714;2022-12-18T02:51:47;101060.25;;;-9.55;100.00
71195;BME280;58908;51.426;7.714;2022-12-18T02:54:18;101055.78;;;-9.19;100.00
71195;BME280;58908;51.426;7.714;2022-12-18T02:56:49;101054.28;;;-9.35;100.00
71195;BME280;58908;51.426;7.714;2022-12-18T02:59:19;101053.47;;;-8.93;100.00
71195;BME280;58908;51.426;7.714;2022-12-18T03:01:49;101055.41;;;-9.28;100.00
71195;BME280;58908;51.426;7.714;2022-12-18T03:04:18;101072.63;;;-9.43;100.00
71195;BME280;58908;51.426;7.714;2022-12-18T03:06:48;101062.22;;;-9.48;100.00
71195;BME280;58908;51.426;7.714;2022-12-18T03:09:17;101061.88;;;-9.36;100.00
71195;BME280;58908;51.426;7.714;2022-12-18T03:11:46;101060.91;;;-9.59;100.00
71195;BME280;58908;51.426;7.714;2022-12-18T03:14:37;101052.53;;;-9.36;100.00
71195;BME280;58908;51.426;7.714;2022-12-18T03:17:04;101046.25;;;-9.23;100.00
71195;BME280;58908;51.426;7.714;2022-12-18T03:19:32;101053.84;;;-9.45;100.00
71195;BME280;58908;51.426;7.714;2022-12-18T03:22:00;101046.75;;;-9.32;100.00
71195;BME280;58908;51.426;7.714;2022-12-18T03:24:28;101045.28;;;-9.46;100.00
71195;BME280;58908;51.426;7.714;2022-12-18T03:26:58;101053.75;;;-9.47;100.00
71195;BME280;58908;51.426;7.714;2022-12-18T03:29:27;101056.34;;;-9.06;100.00
71195;BME280;58908;51.426;7.714;2022-12-18T03:31:58;101059.94;;;-9.01;100.00
71195;BME280;58908;51.426;7.714;2022-12-18T03:34:26;101053.22;;;-8.79;100.00
71195;BME280;58908;51.426;7.714;2022-12-18T03:36:55;101064.28;;;-8.58;100.00
71195;BME280;58908;51.426;7.714;2022-12-18T03:39:24;101058.84;;;-9.08;100.00
71195;BME280;58908;51.426;7.714;2022-12-18T03:41:51;101056.78;;;-9.16;100.00
71195;BME280;58908;51.426;7.714;2022-12-18T03:44:19;101049.97;;;-9.56;100.00
71195;BME280;58908;51.426;7.714;2022-12-18T03:46:48;101045.88;;;-9.12;100.00
71195;BME280;58908;51.426;7.714;2022-12-18T03:49:22;101049.25;;;-9.13;100.00
71195;BME280;58908;51.426;7.714;2022-12-18T03:51:52;101042.56;;;-9.10;100.00
71195;BME280;58908;51.426;7.714;2022-12-18T03:54:20;101034.63;;;-8.75;100.00
71195;BME280;58908;51.426;7.714;2022-12-18T03:56:48;101021.69;;;-8.57;100.00
71195;BME280;58908;51.426;7.714;2022-12-18T03:59:17;101028.69;;;-8.74;100.00
71195;BME280;58908;51.426;7.714;2022-12-18T04:01:45;101023.88;;;-8.44;100.00
71195;BME280;58908;51.426;7.714;2022-12-18T04:04:12;101036.63;;;-8.68;100.00
71195;BME280;58908;51.426;7.714;2022-12-18T04:06:40;101035.97;;;-8.84;100.00
71195;BME280;58908;51.426;7.714;2022-12-18T04:09:07;101044.81;;;-8.76;100.00
71195;BME280;58908;51.426;7.714;2022-12-18T04:11:34;101042.16;;;-8.35;100.00
71195;BME280;58908;51.426;7.714;2022-12-18T04:14:00;101036.84;;;-6.43;100.00
71195;BME280;58908;51.426;7.714;2022-12-18T04:16:26;101039.69;;;-7.13;100.00
71195;BME280;58908;51.426;7.714;2022-12-18T04:18:53;101044.41;;;-8.21;100.00
71195;BME280;58908;51.426;7.714;2022-12-18T04:21:19;101037.00;;;-7.90;100.00
71195;BME280;58908;51.426;7.714;2022-12-18T04:23:47;101039.00;;;-7.09;100.00
71195;BME280;58908;51.426;7.714;2022-12-18T04:26:14;101028.19;;;-5.26;100.00
71195;BME280;58908;51.426;7.714;2022-12-18T04:28:40;101023.09;;;-5.24;100.00
71195;BME280;58908;51.426;7.714;2022-12-18T04:31:06;101030.06;;;-5.51;100.00
71195;BME280;58908;51.426;7.714;2022-12-18T04:33:32;101020.34;;;-4.63;100.00
71195;BME280;58908;51.426;7.714;2022-12-18T04:35:59;101020.16;;;-4.71;100.00
71195;BME280;58908;51.426;7.714;2022-12-18T04:38:25;101017.19;;;-4.86;100.00
71195;BME280;58908;51.426;7.714;2022-12-18T04:40:52;101024.66;;;-5.31;100.00
71195;BME280;58908;51.426;7.714;2022-12-18T04:43:19;101024.06;;;-5.21;100.00
71195;BME280;58908;51.426;7.714;2022-12-18T04:45:45;101019.34;;;-5.03;100.00
71195;BME280;58908;51.426;7.714;2022-12-18T04:48:11;101023.47;;;-5.11;100.00
71195;BME280;58908;51.426;7.714;2022-12-18T04:50:37;101023.41;;;-5.12;100.00
71195;BME280;58908;51.426;7.714;2022-12-18T04:53:04;101021.38;;;-5.25;100.00
71195;BME280;58908;51.426;7.714;2022-12-18T04:55:30;101025.16;;;-5.11;100.00
71195;BME280;58908;51.426;7.714;2022-12-18T04:57:57;101009.19;;;-4.63;100.00
71195;BME280;58908;51.426;7.714;2022-12-18T05:00:24;101020.81;;;-4.78;100.00
71195;BME280;58908;51.426;7.714;2022-12-18T05:02:50;101014.34;;;-4.62;100.00
71195;BME280;58908;51.426;7.714;2022-12-18T05:05:16;101023.22;;;-4.86;100.00
71195;BME280;58908;51.426;7.714;2022-12-18T05:07:42;101022.56;;;-4.77;100.00
71195;BME280;58908;51.426;7.714;2022-12-18T05:10:09;101017.69;;;-4.66;100.00
71195;BME280;58908;51.426;7.714;2022-12-18T05:12:35;101018.28;;;-5.12;100.00
71195;BME280;58908;51.426;7.714;2022-12-18T05:15:23;101011.31;;;-5.49;100.00
71195;BME280;58908;51.426;7.714;2022-12-18T05:17:49;101012.84;;;-5.55;100.00
71195;BME280;58908;51.426;7.714;2022-12-18T05:20:16;101009.84;;;-5.39;100.00
71195;BME280;58908;51.426;7.714;2022-12-18T05:22:43;101015.38;;;-5.57;100.00
71195;BME280;58908;51.426;7.714;2022-12-18T05:25:09;101006.94;;;-4.85;100.00
71195;BME280;58908;51.426;7.714;2022-12-18T05:27:35;100991.19;;;-4.25;100.00
71195;BME280;58908;51.426;7.714;2022-12-18T05:30:02;100992.63;;;-3.97;100.00
71195;BME280;58908;51.426;7.714;2022-12-18T05:32:29;100989.19;;;-4.36;100.00
71195;BME280;58908;51.426;7.714;2022-12-18T05:34:55;100992.47;;;-4.81;100.00
71195;BME280;58908;51.426;7.714;2022-12-18T05:37:22;100985.47;;;-4.85;100.00
71195;BME280;58908;51.426;7.714;2022-12-18T05:39:49;100973.22;;;-4.95;100.00
71195;BME280;58908;51.426;7.714;2022-12-18T05:42:15;100981.44;;;-5.11;100.00
71195;BME280;58908;51.426;7.714;2022-12-18T05:44:41;100969.53;;;-5.06;100.00
71195;BME280;58908;51.426;7.714;2022-12-18T05:47:07;100981.53;;;-5.41;100.00
71195;BME280;58908;51.426;7.714;2022-12-18T05:49:35;100984.06;;;-5.10;100.00
71195;BME280;58908;51.426;7.714;2022-12-18T05:52:01;100986.44;;;-5.50;100.00
71195;BME280;58908;51.426;7.714;2022-12-18T05:54:27;100990.16;;;-5.39;100.00
71195;BME280;58908;51.426;7.714;2022-12-18T05:56:54;100983.59;;;-5.60;100.00
71195;BME280;58908;51.426;7.714;2022-12-18T05:59:20;100982.47;;;-6.02;100.00
71195;BME280;58908;51.426;7.714;2022-12-18T06:01:46;100988.84;;;-4.89;100.00
71195;BME280;58908;51.426;7.714;2022-12-18T06:04:12;101000.09;;;-5.20;100.00
71195;BME280;58908;51.426;7.714;2022-12-18T06:06:40;100999.25;;;-5.17;100.00
71195;BME280;58908;51.426;7.714;2022-12-18T06:09:06;101009.16;;;-5.65;100.00
71195;BME280;58908;51.426;7.714;2022-12-18T06:11:34;101006.97;;;-5.84;100.00
71195;BME280;58908;51.426;7.714;2022-12-18T06:14:02;101009.44;;;-5.87;100.00
71195;BME280;58908;51.426;7.714;2022-12-18T06:16:29;101012.94;;;-6.14;100.00
71195;BME280;58908;51.426;7.714;2022-12-18T06:18:55;101015.31;;;-5.91;100.00
71195;BME280;58908;51.426;7.714;2022-12-18T06:21:21;101023.81;;;-5.93;100.00
71195;BME280;58908;51.426;7.714;2022-12-18T06:23:49;101029.66;;;-5.99;100.00
71195;BME280;58908;51.426;7.714;2022-12-18T06:26:15;101033.88;;;-6.29;100.00
71195;BME280;58908;51.426;7.714;2022-12-18T06:28:42;101046.69;;;-6.57;100.00
71195;BME280;58908;51.426;7.714;2022-12-18T06:31:08;101045.41;;;-6.71;100.00
71195;BME280;58908;51.426;7.714;2022-12-18T06:33:35;101039.03;;;-5.99;100.00
71195;BME280;58908;51.426;7.714;2022-12-18T06:36:02;101042.84;;;-6.16;100.00
71195;BME280;58908;51.426;7.714;2022-12-18T06:38:29;101038.25;;;-6.26;100.00
71195;BME280;58908;51.426;7.714;2022-12-18T06:40:57;101033.97;;;-5.34;100.00
71195;BME280;58908;51.426;7.714;2022-12-18T06:43:23;101030.72;;;-5.60;100.00
71195;BME280;58908;51.426;7.714;2022-12-18T06:45:49;101020.25;;;-4.29;100.00
71195;BME280;58908;51.426;7.714;2022-12-18T06:48:17;101014.31;;;-4.28;100.00
71195;BME280;58908;51.426;7.714;2022-12-18T06:50:44;101015.81;;;-3.54;100.00
71195;BME280;58908;51.426;7.714;2022-12-18T06:53:10;101010.91;;;-3.84;100.00
71195;BME280;58908;51.426;7.714;2022-12-18T06:55:36;101021.09;;;-4.31;99.64
71195;BME280;58908;51.426;7.714;2022-12-18T06:58:04;101018.31;;;-4.77;100.00
71195;BME280;58908;51.426;7.714;2022-12-18T07:00:30;101017.13;;;-4.53;100.00
71195;BME280;58908;51.426;7.714;2022-12-18T07:02:56;101018.53;;;-5.02;100.00
71195;BME280;58908;51.426;7.714;2022-12-18T07:05:23;101020.56;;;-5.23;100.00
71195;BME280;58908;51.426;7.714;2022-12-18T07:07:49;101019.53;;;-4.97;100.00
71195;BME280;58908;51.426;7.714;2022-12-18T07:10:15;101000.00;;;-4.12;100.00
71195;BME280;58908;51.426;7.714;2022-12-18T07:12:41;101006.25;;;-4.41;99.76
71195;BME280;58908;51.426;7.714;2022-12-18T07:15:09;101012.47;;;-4.32;98.74
71195;BME280;58908;51.426;7.714;2022-12-18T07:17:36;101015.75;;;-3.99;97.80
71195;BME280;58908;51.426;7.714;2022-12-18T07:20:03;101019.16;;;-4.40;99.14
71195;BME280;58908;51.426;7.714;2022-12-18T07:22:29;101013.09;;;-4.03;97.41
71195;BME280;58908;51.426;7.714;2022-12-18T07:24:55;101007.28;;;-3.93;96.25
71195;BME280;58908;51.426;7.714;2022-12-18T07:27:22;101009.81;;;-3.95;95.01
71195;BME280;58908;51.426;7.714;2022-12-18T07:29:48;101008.94;;;-4.37;96.58
71195;BME280;58908;51.426;7.714;2022-12-18T07:32:16;100996.66;;;-4.85;99.34
71195;BME280;58908;51.426;7.714;2022-12-18T07:34:42;101002.94;;;-4.72;99.83
71195;BME280;58908;51.426;7.714;2022-12-18T07:37:08;101000.91;;;-4.50;99.73
71195;BME280;58908;51.426;7.714;2022-12-18T07:39:35;100991.72;;;-4.39;100.00
71195;BME280;58908;51.426;7.714;2022-12-18T07:42:01;100998.19;;;-4.56;100.00
71195;BME280;58908;51.426;7.714;2022-12-18T07:44:45;100992.34;;;-4.11;99.65
71195;BME280;58908;51.426;7.714;2022-12-18T07:47:11;100992.03;;;-4.24;98.57
71195;BME280;58908;51.426;7.714;2022-12-18T07:49:39;100990.03;;;-4.39;98.75
71195;BME280;58908;51.426;7.714;2022-12-18T07:52:05;100975.94;;;-3.25;94.96
71195;BME280;58908;51.426;7.714;2022-12-18T07:54:31;100980.78;;;-3.42;93.44
71195;BME280;58908;51.426;7.714;2022-12-18T07:56:58;100983.91;;;-3.12;90.70
71195;BME280;58908;51.426;7.714;2022-12-18T07:59:24;100976.28;;;-3.04;89.58
71195;BME280;58908;51.426;7.714;2022-12-18T08:01:50;100982.63;;;-2.84;88.05
71195;BME280;58908;51.426;7.714;2022-12-18T08:04:16;100975.13;;;-2.71;85.40
71195;BME280;58908;51.426;7.714;2022-12-18T08:06:44;100991.44;;;-3.22;88.82
71195;BME280;58908;51.426;7.714;2022-12-18T08:09:10;100989.81;;;-3.66;92.18
71195;BME280;58908;51.426;7.714;2022-12-18T08:11:37;100998.34;;;-3.67;92.55
71195;BME280;58908;51.426;7.714;2022-12-18T08:14:03;100984.16;;;-3.46;92.25
71195;BME280;58908;51.426;7.714;2022-12-18T08:16:29;100987.00;;;-3.31;91.02
71195;BME280;58908;51.426;7.714;2022-12-18T08:18:56;100988.53;;;-3.43;92.05
71195;BME280;58908;51.426;7.714;2022-12-18T08:21:23;100988.41;;;-3.49;92.08
71195;BME280;58908;51.426;7.714;2022-12-18T08:23:51;100975.53;;;-3.46;92.20
71195;BME280;58908;51.426;7.714;2022-12-18T08:26:18;100970.88;;;-3.18;90.03
71195;BME280;58908;51.426;7.714;2022-12-18T08:28:45;100972.00;;;-3.04;88.74
71195;BME280;58908;51.426;7.714;2022-12-18T08:31:11;100955.09;;;-2.85;87.49
71195;BME280;58908;51.426;7.714;2022-12-18T08:33:38;100951.72;;;-2.81;86.67
71195;BME280;58908;51.426;7.714;2022-12-18T08:36:05;100951.41;;;-3.01;88.94
71195;BME280;58908;51.426;7.714;2022-12-18T08:38:31;100935.72;;;-2.56;84.31
71195;BME280;58908;51.426;7.714;2022-12-18T08:41:00;100930.47;;;-2.62;84.40
71195;BME280;58908;51.426;7.714;2022-12-18T08:43:26;100930.41;;;-2.03;79.30
71195;BME280;58908;51.426;7.714;2022-12-18T08:46:10;100922.72;;;-1.99;79.52
71195;BME280;58908;51.426;7.714;2022-12-18T08:48:36;100907.44;;;-1.75;76.56
71195;BME280;58908;51.426;7.714;2022-12-18T08:51:02;100891.81;;;-1.87;77.29
71195;BME280;58908;51.426;7.714;2022-12-18T08:53:29;100893.47;;;-1.93;78.21
71195;BME280;58908;51.426;7.714;2022-12-18T08:55:55;100898.75;;;-1.81;76.57
71195;BME280;58908;51.426;7.714;2022-12-18T08:58:23;100884.22;;;-1.69;76.54
71195;BME280;58908;51.426;7.714;2022-12-18T09:00:49;100880.91;;;-1.54;74.83
71195;BME280;58908;51.426;7.714;2022-12-18T09:03:17;100887.16;;;-1.33;72.97
71195;BME280;58908;51.426;7.714;2022-12-18T09:05:43;100878.50;;;-1.35;73.69
71195;BME280;58908;51.426;7.714;2022-12-18T09:08:11;100887.09;;;-1.36;74.24
71195;BME280;58908;51.426;7.714;2022-12-18T09:10:41;100884.00;;;-0.93;70.55
71195;BME280;58908;51.426;7.714;2022-12-18T09:13:07;100891.59;;;-1.15;74.83
71195;BME280;58908;51.426;7.714;2022-12-18T09:15:35;100893.63;;;-0.68;70.55
71195;BME280;58908;51.426;7.714;2022-12-18T09:18:05;100901.16;;;-1.07;74.25
71195;BME280;58908;51.426;7.714;2022-12-18T09:20:32;100908.13;;;-0.95;72.93
71195;BME280;58908;51.426;7.714;2022-12-18T09:22:58;100907.28;;;-0.96;72.59
71195;BME280;58908;51.426;7.714;2022-12-18T09:25:24;100898.88;;;-0.60;69.69
71195;BME280;58908;51.426;7.714;2022-12-18T09:27:52;100895.56;;;-0.31;68.77
71195;BME280;58908;51.426;7.714;2022-12-18T09:30:18;100886.88;;;-0.43;66.51
71195;BME280;58908;51.426;7.714;2022-12-18T09:32:46;100881.63;;;-0.55;67.83
71195;BME280;58908;51.426;7.714;2022-12-18T09:35:12;100877.34;;;-0.44;66.36
71195;BME280;58908;51.426;7.714;2022-12-18T09:37:39;100879.06;;;-0.54;67.35
71195;BME280;58908;51.426;7.714;2022-12-18T09:40:12;100881.59;;;-0.60;68.62
71195;BME280;58908;51.426;7.714;2022-12-18T09:42:38;100882.50;;;-0.56;67.37
71195;BME280;58908;51.426;7.714;2022-12-18T09:45:07;100888.59;;;-0.42;65.91
71195;BME280;58908;51.426;7.714;2022-12-18T09:47:38;100885.09;;;-0.52;68.16
71195;BME280;58908;51.426;7.714;2022-12-18T09:50:12;100873.03;;;-0.45;67.79
71195;BME280;58908;51.426;7.714;2022-12-18T09:52:44;100867.91;;;-0.33;66.17
71195;BME280;58908;51.426;7.714;2022-12-18T09:55:13;100856.69;;;-0.29;65.13
71195;BME280;58908;51.426;7.714;2022-12-18T09:57:42;100864.50;;;-0.17;64.77
71195;BME280;58908;51.426;7.714;2022-12-18T10:00:15;100850.66;;;-0.27;65.67
71195;BME280;58908;51.426;7.714;2022-12-18T10:02:42;100853.28;;;-0.16;65.50
71195;BME280;58908;51.426;7.714;2022-12-18T10:05:11;100844.69;;;0.10;63.03
71195;BME280;58908;51.426;7.714;2022-12-18T10:07:44;100852.50;;;0.16;62.86
71195;BME280;58908;51.426;7.714;2022-12-18T10:10:15;100856.78;;;-0.07;65.60
71195;BME280;58908;51.426;7.714;2022-12-18T10:12:46;100865.44;;;-0.01;65.94
71195;BME280;58908;51.426;7.714;2022-12-18T10:15:19;100864.59;;;0.14;64.41
71195;BME280;58908;51.426;7.714;2022-12-18T10:17:50;100854.22;;;0.15;63.33
71195;BME280;58908;51.426;7.714;2022-12-18T10:20:21;100841.25;;;0.32;63.49
71195;BME280;58908;51.426;7.714;2022-12-18T10:22:51;100843.03;;;0.40;62.33
71195;BME280;58908;51.426;7.714;2022-12-18T10:25:21;100835.22;;;0.67;60.14
71195;BME280;58908;51.426;7.714;2022-12-18T10:27:48;100829.19;;;0.49;61.97
71195;BME280;58908;51.426;7.714;2022-12-18T10:30:19;100822.22;;;0.82;58.40
71195;BME280;58908;51.426;7.714;2022-12-18T10:32:45;100806.69;;;0.73;59.82
71195;BME280;58908;51.426;7.714;2022-12-18T10:35:16;100820.50;;;0.81;58.72
71195;BME280;58908;51.426;7.714;2022-12-18T10:40:48;100824.84;;;0.76;58.98
71195;BME280;58908;51.426;7.714;2022-12-18T10:43:15;100830.00;;;0.87;58.87
71195;BME280;58908;51.426;7.714;2022-12-18T10:45:56;100814.47;;;0.69;59.71
71195;BME280;58908;51.426;7.714;2022-12-18T10:48:24;100822.22;;;0.87;59.08
71195;BME280;58908;51.426;7.714;2022-12-18T10:50:50;100806.63;;;0.97;58.81
71195;BME280;58908;51.426;7.714;2022-12-18T10:53:18;100797.94;;;1.00;58.05
71195;BME280;58908;51.426;7.714;2022-12-18T10:55:46;100793.63;;;1.03;58.10
71195;BME280;58908;51.426;7.714;2022-12-18T10:58:15;100787.63;;;0.86;60.26
71195;BME280;58908;51.426;7.714;2022-12-18T11:00:43;100774.59;;;0.94;58.23
71195;BME280;58908;51.426;7.714;2022-12-18T11:03:28;100778.03;;;0.99;59.15
71195;BME280;58908;51.426;7.714;2022-12-18T11:06:00;100784.97;;;1.06;57.97
71195;BME280;58908;51.426;7.714;2022-12-18T11:08:27;100778.00;;;1.11;57.79
71195;BME280;58908;51.426;7.714;2022-12-18T11:10:54;100774.53;;;1.19;57.40
71195;BME280;58908;51.426;7.714;2022-12-18T11:13:21;100776.25;;;1.23;56.72
71195;BME280;58908;51.426;7.714;2022-12-18T11:15:48;100768.47;;;1.19;58.90
71195;BME280;58908;51.426;7.714;2022-12-18T11:18:16;100771.97;;;1.10;57.91
71195;BME280;58908;51.426;7.714;2022-12-18T11:20:42;100759.78;;;1.20;57.16
71195;BME280;58908;51.426;7.714;2022-12-18T11:23:15;100760.66;;;1.22;59.45
71195;BME280;58908;51.426;7.714;2022-12-18T11:25:41;100752.81;;;1.31;56.59
71195;BME280;58908;51.426;7.714;2022-12-18T11:28:26;100757.16;;;1.35;56.36
71195;BME280;58908;51.426;7.714;2022-12-18T11:31:08;100755.34;;;1.49;55.36
71195;BME280;58908;51.426;7.714;2022-12-18T11:33:35;100745.81;;;1.52;55.88
71195;BME280;58908;51.426;7.714;2022-12-18T11:36:04;100740.66;;;1.45;57.06
71195;BME280;58908;51.426;7.714;2022-12-18T11:38:34;100734.47;;;1.61;55.13
71195;BME280;58908;51.426;7.714;2022-12-18T11:41:02;100722.34;;;1.64;56.37
71195;BME280;58908;51.426;7.714;2022-12-18T11:43:31;100721.56;;;1.44;58.15
71195;BME280;58908;51.426;7.714;2022-12-18T11:46:02;100729.44;;;1.28;59.64
71195;BME280;58908;51.426;7.714;2022-12-18T11:48:30;100723.41;;;1.21;60.24
71195;BME280;58908;51.426;7.714;2022-12-18T11:50:59;100735.47;;;1.39;57.61
71195;BME280;58908;51.426;7.714;2022-12-18T11:53:26;100731.13;;;1.41;57.37
71195;BME280;58908;51.426;7.714;2022-12-18T11:55:56;100740.66;;;1.40;59.37
71195;BME280;58908;51.426;7.714;2022-12-18T11:58:29;100728.59;;;1.24;60.96
71195;BME280;58908;51.426;7.714;2022-12-18T12:01:02;100715.66;;;1.18;60.24
71195;BME280;58908;51.426;7.714;2022-12-18T12:03:46;100713.03;;;1.21;63.18
71195;BME280;58908;51.426;7.714;2022-12-18T12:06:18;100698.38;;;1.07;63.81
71195;BME280;58908;51.426;7.714;2022-12-18T12:08:51;100691.41;;;1.13;62.42
71195;BME280;58908;51.426;7.714;2022-12-18T12:11:21;100685.38;;;1.11;64.06
71195;BME280;58908;51.426;7.714;2022-12-18T12:14:01;100692.28;;;1.18;63.39
71195;BME280;58908;51.426;7.714;2022-12-18T12:16:33;100687.88;;;1.29;61.55
71195;BME280;58908;51.426;7.714;2022-12-18T12:19:06;100682.69;;;1.29;60.12
71195;BME280;58908;51.426;7.714;2022-12-18T12:21:39;100674.88;;;1.29;63.86
71195;BME280;58908;51.426;7.714;2022-12-18T12:24:10;100681.88;;;1.18;64.63
71195;BME280;58908;51.426;7.714;2022-12-18T12:26:38;100679.19;;;1.27;62.39
71195;BME280;58908;51.426;7.714;2022-12-18T12:29:13;100686.03;;;1.46;57.90
71195;BME280;58908;51.426;7.714;2022-12-18T12:31:49;100678.25;;;1.43;60.59
71195;BME280;58908;51.426;7.714;2022-12-18T12:34:19;100672.09;;;1.58;57.46
71195;BME280;58908;51.426;7.714;2022-12-18T12:36:52;100671.19;;;1.66;56.46
71195;BME280;58908;51.426;7.714;2022-12-18T12:39:21;100672.78;;;1.84;55.69
71195;BME280;58908;51.426;7.714;2022-12-18T12:41:48;100672.91;;;1.67;58.79
71195;BME280;58908;51.426;7.714;2022-12-18T12:44:34;100666.72;;;1.80;55.38
71195;BME280;58908;51.426;7.714;2022-12-18T12:47:07;100662.44;;;1.76;57.38
71195;BME280;58908;51.426;7.714;2022-12-18T12:49:38;100654.66;;;1.73;56.88
71195;BME280;58908;51.426;7.714;2022-12-18T12:52:06;100660.75;;;1.71;56.75
71195;BME280;58908;51.426;7.714;2022-12-18T12:54:33;100655.38;;;1.90;54.41
71195;BME280;58908;51.426;7.714;2022-12-18T12:57:02;100643.75;;;2.28;51.26